Time;durP1;ratioP1;P1;durP2;ratioP2;P2;SDS_P1;SDS_P2;PMS_P1;PMS_P2;Temp;Humidity;BMP_temperature;BMP_pressure;BME280_temperature;BME280_humidity;BME280_pressure;Samples;Min_cycle;Max_cycle;Signal;HPM_P1;HPM_P2
2023/12/27 00:02:09;;;;;;;5.70;2.17;;;8.90;99.90;;;;;;10356046;28;20084;-76
2023/12/27 00:07:09;;;;;;;5.73;1.73;;;8.90;99.90;;;;;;10350599;28;20541;-76
2023/12/27 00:12:10;;;;;;;6.35;2.25;;;8.90;99.90;;;;;;10351163;28;20034;-76
2023/12/27 00:17:11;;;;;;;4.35;2.22;;;8.90;99.90;;;;;;10356014;28;20022;-76
2023/12/27 00:22:14;;;;;;;5.55;2.00;;;8.90;99.90;;;;;;10357081;28;20133;-76
2023/12/27 00:27:17;;;;;;;3.78;1.92;;;9.10;99.90;;;;;;10354284;28;20030;-76
2023/12/27 00:32:19;;;;;;;3.63;2.10;;;8.80;99.90;;;;;;10347086;28;20121;-76
2023/12/27 00:37:19;;;;;;;3.90;2.10;;;8.80;99.90;;;;;;10355771;28;20026;-76
2023/12/27 00:42:21;;;;;;;3.60;2.20;;;8.80;99.90;;;;;;10356579;28;20405;-76
2023/12/27 00:47:24;;;;;;;7.10;2.30;;;8.80;99.90;;;;;;10348593;28;20065;-76
2023/12/27 00:52:27;;;;;;;4.25;2.15;;;8.80;99.90;;;;;;10351413;28;20046;-76
2023/12/27 00:57:30;;;;;;;5.15;2.30;;;8.80;99.90;;;;;;10349645;28;20105;-76
2023/12/27 01:02:30;;;;;;;5.28;2.20;;;8.70;99.90;;;;;;10354021;28;20034;-76
2023/12/27 01:07:31;;;;;;;5.78;2.38;;;8.80;99.90;;;;;;10334871;28;20567;-76
2023/12/27 01:12:32;;;;;;;4.88;2.25;;;8.70;99.90;;;;;;10355209;28;20405;-76
2023/12/27 01:17:35;;;;;;;6.75;2.72;;;8.70;99.90;;;;;;10363245;28;20110;-77
2023/12/27 01:22:35;;;;;;;3.85;2.00;;;8.70;99.90;;;;;;10366942;28;20022;-77
2023/12/27 01:27:38;;;;;;;6.28;2.30;;;8.70;99.90;;;;;;10363622;28;20030;-77
2023/12/27 01:32:46;;;;;;;6.93;2.72;;;8.60;99.90;;;;;;10362111;28;20397;-77
2023/12/27 01:37:47;;;;;;;4.15;2.30;;;8.70;99.90;;;;;;10360956;28;20112;-77
2023/12/27 01:42:50;;;;;;;4.15;2.70;;;8.60;99.90;;;;;;10363041;28;20499;-77
2023/12/27 01:47:51;;;;;;;3.15;2.50;;;8.60;99.90;;;;;;10365331;28;20022;-77
2023/12/27 01:52:52;;;;;;;3.97;2.47;;;8.60;99.90;;;;;;10360242;28;20045;-77
2023/12/27 01:57:52;;;;;;;5.10;2.92;;;8.60;99.90;;;;;;10360861;28;20080;-77
2023/12/27 02:02:56;;;;;;;4.63;2.97;;;8.50;99.90;;;;;;10364614;28;20355;-77
2023/12/27 02:07:58;;;;;;;3.92;2.17;;;8.50;99.90;;;;;;10354107;28;20493;-77
2023/12/27 02:13:05;;;;;;;4.57;2.13;;;8.50;99.90;;;;;;10358695;28;20302;-77
2023/12/27 02:18:09;;;;;;;3.95;2.45;;;8.50;99.90;;;;;;10358974;28;20105;-77
2023/12/27 02:23:12;;;;;;;3.67;2.50;;;8.50;99.90;;;;;;10355695;28;20372;-77
2023/12/27 02:28:15;;;;;;;3.97;2.35;;;8.50;99.90;;;;;;10348827;28;20022;-77
2023/12/27 02:33:16;;;;;;;3.88;2.40;;;8.50;99.90;;;;;;10359328;28;20030;-77
2023/12/27 02:38:16;;;;;;;4.32;2.33;;;8.40;99.90;;;;;;10361993;28;20049;-77
2023/12/27 02:43:17;;;;;;;3.05;1.98;;;8.40;99.90;;;;;;10340456;28;20883;-77
2023/12/27 02:48:17;;;;;;;2.65;2.08;;;8.40;99.90;;;;;;10357693;28;20030;-77
2023/12/27 02:53:18;;;;;;;5.65;2.50;;;8.40;99.90;;;;;;10355253;28;20076;-77
2023/12/27 02:58:26;;;;;;;4.47;2.28;;;8.40;99.90;;;;;;10357524;28;20412;-77
2023/12/27 03:03:26;;;;;;;4.18;2.17;;;8.40;99.90;;;;;;10353400;28;20117;-77
2023/12/27 03:08:36;;;;;;;4.78;2.13;;;8.40;99.90;;;;;;10357457;28;20061;-77
2023/12/27 03:13:39;;;;;;;4.38;2.08;;;8.40;99.90;;;;;;10356091;28;20388;-77
2023/12/27 03:18:43;;;;;;;2.67;2.22;;;8.30;99.90;;;;;;10352573;28;20056;-77
2023/12/27 03:23:43;;;;;;;3.85;2.15;;;8.30;99.90;;;;;;10335388;28;20026;-77
2023/12/27 03:28:47;;;;;;;4.38;2.42;;;8.30;99.90;;;;;;10343982;28;20408;-77
2023/12/27 03:33:47;;;;;;;3.60;2.10;;;8.30;99.90;;;;;;10358032;28;20127;-77
2023/12/27 03:38:53;;;;;;;4.63;2.28;;;8.30;99.90;;;;;;10353474;28;20505;-77
2023/12/27 03:43:58;;;;;;;4.35;2.25;;;8.50;99.90;;;;;;10351813;28;20033;-77
2023/12/27 03:48:59;;;;;;;3.33;2.00;;;8.30;99.90;;;;;;10355451;28;20484;-77
2023/12/27 03:54:05;;;;;;;6.07;2.55;;;8.30;99.90;;;;;;10351531;28;20038;-77
2023/12/27 03:59:05;;;;;;;5.38;2.47;;;8.30;99.90;;;;;;10350983;28;20465;-77
2023/12/27 04:04:16;;;;;;;5.43;2.30;;;8.20;99.90;;;;;;10353842;28;20122;-77
2023/12/27 04:09:19;;;;;;;4.53;2.45;;;8.30;99.90;;;;;;10349032;28;20018;-77
2023/12/27 04:14:22;;;;;;;3.22;2.13;;;8.20;99.90;;;;;;10349039;28;20369;-77
2023/12/27 04:19:32;;;;;;;3.78;2.08;;;8.20;99.90;;;;;;10353953;28;20022;-77
2023/12/27 04:24:33;;;;;;;4.18;2.45;;;8.20;99.90;;;;;;10346184;28;20517;-77
2023/12/27 04:29:33;;;;;;;4.10;2.60;;;8.20;99.90;;;;;;10355904;28;20030;-77
2023/12/27 04:34:36;;;;;;;4.45;2.75;;;8.20;99.90;;;;;;10350429;28;20034;-77
2023/12/27 04:39:46;;;;;;;3.55;2.47;;;8.20;99.90;;;;;;10351974;28;20476;-77
2023/12/27 04:44:56;;;;;;;3.80;2.35;;;8.20;99.90;;;;;;10347510;28;20030;-77
2023/12/27 04:49:57;;;;;;;4.82;2.40;;;8.20;99.90;;;;;;10353357;28;20029;-77
2023/12/27 04:55:02;;;;;;;4.47;2.47;;;8.20;99.90;;;;;;10348853;28;20041;-77
2023/12/27 05:00:07;;;;;;;4.00;2.50;;;8.20;99.90;;;;;;10354687;28;20041;-77
2023/12/27 05:05:07;;;;;;;4.05;2.38;;;8.20;99.90;;;;;;10352353;28;20026;-77
2023/12/27 05:10:11;;;;;;;4.95;2.15;;;8.20;99.90;;;;;;10353527;28;20018;-77
2023/12/27 05:15:11;;;;;;;5.38;2.35;;;8.20;99.90;;;;;;10341698;28;20032;-77
2023/12/27 05:20:17;;;;;;;4.10;2.30;;;8.20;99.90;;;;;;10343174;28;20049;-77
2023/12/27 05:25:21;;;;;;;9.52;2.95;;;8.10;99.90;;;;;;10352079;28;20030;-77
2023/12/27 05:30:21;;;;;;;6.60;2.78;;;8.10;99.90;;;;;;10351571;28;20409;-76
2023/12/27 05:35:32;;;;;;;4.45;2.85;;;8.10;99.90;;;;;;10353766;28;20030;-77
2023/12/27 05:40:34;;;;;;;4.00;2.53;;;8.10;99.90;;;;;;10349552;28;20030;-76
2023/12/27 05:45:35;;;;;;;6.43;2.35;;;8.10;99.90;;;;;;10350261;28;20033;-76
2023/12/27 05:50:36;;;;;;;5.03;2.42;;;8.10;99.90;;;;;;10355591;28;20370;-76
2023/12/27 05:55:36;;;;;;;6.95;3.00;;;8.10;99.90;;;;;;10353848;28;20146;-76
2023/12/27 06:00:46;;;;;;;4.60;2.67;;;8.10;99.90;;;;;;10360620;28;20160;-76
2023/12/27 06:06:09;;;;;;;4.75;2.50;;;8.10;99.90;;;;;;10363872;28;20026;-77
2023/12/27 06:11:15;;;;;;;5.30;2.70;;;8.10;99.90;;;;;;10356322;28;20034;-77
2023/12/27 06:16:18;;;;;;;3.92;2.35;;;8.10;99.90;;;;;;10357407;28;20038;-77
2023/12/27 06:21:21;;;;;;;4.97;2.70;;;8.10;99.90;;;;;;10361185;28;20034;-77
2023/12/27 06:26:22;;;;;;;6.00;3.15;;;8.10;99.90;;;;;;10358594;28;20780;-77
2023/12/27 06:31:28;;;;;;;6.55;2.78;;;8.10;99.90;;;;;;10353269;28;20083;-77
2023/12/27 06:36:35;;;;;;;6.32;2.95;;;8.10;99.90;;;;;;10357451;28;20034;-76
2023/12/27 06:41:38;;;;;;;5.35;2.63;;;8.10;99.90;;;;;;10362363;28;20088;-76
2023/12/27 06:46:43;;;;;;;5.47;2.72;;;8.10;99.90;;;;;;10359336;28;20025;-76
2023/12/27 06:52:03;;;;;;;6.50;3.38;;;8.10;99.90;;;;;;10356320;28;20398;-76
2023/12/27 06:57:04;;;;;;;8.07;3.30;;;8.10;99.90;;;;;;10358633;28;20022;-76
2023/12/27 07:02:09;;;;;;;4.05;2.78;;;8.10;99.90;;;;;;10342078;28;20026;-76
2023/12/27 07:07:12;;;;;;;7.53;3.50;;;8.10;99.90;;;;;;10351900;28;20022;-76
2023/12/27 07:12:15;;;;;;;6.30;3.40;;;8.10;99.90;;;;;;10352828;28;20030;-76
2023/12/27 07:17:26;;;;;;;7.32;3.38;;;8.10;99.90;;;;;;10354212;28;20053;-76
2023/12/27 07:22:32;;;;;;;7.47;3.20;;;8.90;99.90;;;;;;10352054;28;20369;-76
2023/12/27 07:27:32;;;;;;;5.68;3.30;;;8.10;99.90;;;;;;10355738;28;20041;-76
2023/12/27 07:32:33;;;;;;;7.65;3.58;;;8.10;99.90;;;;;;10351321;28;20045;-76
2023/12/27 07:37:33;;;;;;;6.45;3.40;;;8.10;99.90;;;;;;10348020;28;20041;-76
2023/12/27 07:42:34;;;;;;;9.48;3.40;;;8.10;99.90;;;;;;10357207;28;20037;-77
2023/12/27 07:47:34;;;;;;;7.47;3.60;;;8.10;99.90;;;;;;10361401;28;20108;-77
2023/12/27 07:52:35;;;;;;;6.28;3.97;;;8.10;99.90;;;;;;10356457;28;20026;-77
2023/12/27 07:57:38;;;;;;;6.82;3.67;;;8.10;99.90;;;;;;10353948;28;20037;-77
2023/12/27 08:02:41;;;;;;;5.35;3.83;;;8.10;99.90;;;;;;10354837;28;20033;-77
2023/12/27 08:07:43;;;;;;;8.68;3.60;;;8.10;99.90;;;;;;10352804;28;20026;-77
2023/12/27 08:12:46;;;;;;;5.47;3.42;;;8.10;99.90;;;;;;10348891;28;20046;-77
2023/12/27 08:17:48;;;;;;;7.40;3.47;;;8.10;99.90;;;;;;10356850;28;20061;-76
2023/12/27 08:22:54;;;;;;;6.65;3.50;;;8.10;99.90;;;;;;10364029;28;20310;-76
2023/12/27 08:28:01;;;;;;;9.23;3.90;;;8.10;99.90;;;;;;10358591;28;20034;-76
2023/12/27 08:33:06;;;;;;;8.05;3.63;;;8.10;99.90;;;;;;10349531;28;20026;-76
2023/12/27 08:38:08;;;;;;;6.32;3.20;;;8.10;99.90;;;;;;10346499;28;20214;-75
2023/12/27 08:43:14;;;;;;;9.02;3.40;;;8.10;99.90;;;;;;10360104;28;20121;-76
2023/12/27 08:48:16;;;;;;;10.70;3.83;;;8.10;99.90;;;;;;10361635;28;20061;-76
2023/12/27 08:53:17;;;;;;;5.97;3.55;;;8.10;99.90;;;;;;10356829;28;20422;-76
2023/12/27 08:58:45;;;;;;;6.68;3.22;;;8.20;99.90;;;;;;10350395;28;20034;-75
2023/12/27 09:03:48;;;;;;;11.30;4.23;;;8.20;99.90;;;;;;10361066;28;20033;-76
2023/12/27 09:08:49;;;;;;;8.73;3.72;;;8.20;99.90;;;;;;10353284;28;20029;-76
2023/12/27 09:13:49;;;;;;;6.07;3.50;;;8.20;99.90;;;;;;10353403;28;20025;-76
2023/12/27 09:18:51;;;;;;;7.57;3.83;;;8.20;99.90;;;;;;10356279;28;20176;-75
2023/12/27 09:23:51;;;;;;;8.25;3.45;;;8.20;99.90;;;;;;10360332;28;20710;-75
2023/12/27 09:28:52;;;;;;;9.00;3.85;;;8.20;99.90;;;;;;10357825;28;20030;-79
2023/12/27 09:33:52;;;;;;;9.18;3.50;;;8.20;99.90;;;;;;10353946;28;20034;-75
2023/12/27 09:38:53;;;;;;;13.35;4.22;;;8.20;99.90;;;;;;10358989;28;20042;-75
2023/12/27 09:43:54;;;;;;;9.25;3.40;;;8.40;99.90;;;;;;10334938;28;20033;-76
2023/12/27 09:48:55;;;;;;;4.45;2.92;;;8.20;99.90;;;;;;10361789;28;20065;-75
2023/12/27 09:53:56;;;;;;;7.65;3.55;;;8.20;99.90;;;;;;10357497;28;20397;-75
2023/12/27 09:58:59;;;;;;;5.82;4.18;;;8.20;99.90;;;;;;10356099;28;20053;-74
2023/12/27 10:04:12;;;;;;;6.32;2.92;;;8.20;99.90;;;;;;10359382;28;20033;-75
2023/12/27 10:09:12;;;;;;;7.60;3.40;;;8.20;99.90;;;;;;10364527;28;20037;-74
2023/12/27 10:14:13;;;;;;;10.90;3.78;;;8.20;99.90;;;;;;10360358;28;20031;-74
2023/12/27 10:19:39;;;;;;;7.70;3.22;;;8.20;99.90;;;;;;10363287;28;20440;-74
2023/12/27 10:24:40;;;;;;;9.25;3.38;;;8.20;99.90;;;;;;10359313;28;20022;-74
2023/12/27 10:29:47;;;;;;;9.18;3.25;;;8.30;99.90;;;;;;10360892;28;20049;-74
2023/12/27 10:34:49;;;;;;;8.65;3.58;;;8.30;99.90;;;;;;10355949;28;20066;-74
2023/12/27 10:39:49;;;;;;;9.75;3.58;;;8.30;99.90;;;;;;10355978;28;20519;-73
2023/12/27 10:44:50;;;;;;;9.00;4.03;;;8.30;99.90;;;;;;10355965;28;20044;-73
2023/12/27 10:49:52;;;;;;;7.15;3.85;;;8.30;99.90;;;;;;10359827;28;20026;-73
2023/12/27 10:54:57;;;;;;;9.63;3.90;;;8.30;99.90;;;;;;10353784;28;20034;-74
2023/12/27 11:00:00;;;;;;;9.43;4.47;;;8.30;99.90;;;;;;10351374;28;20030;-74
2023/12/27 11:05:03;;;;;;;9.07;4.30;;;8.30;99.90;;;;;;10352406;28;20029;-74
2023/12/27 11:10:06;;;;;;;10.00;4.70;;;8.40;99.90;;;;;;10355792;28;20036;-74
2023/12/27 11:15:08;;;;;;;7.75;4.40;;;8.30;99.90;;;;;;10363331;28;20412;-74
2023/12/27 11:20:10;;;;;;;10.32;4.60;;;8.30;99.90;;;;;;10356286;28;20502;-74
2023/12/27 11:25:11;;;;;;;7.93;4.47;;;8.20;99.90;;;;;;10349765;28;20575;-75
2023/12/27 11:30:13;;;;;;;6.95;4.05;;;8.30;99.90;;;;;;10354668;28;20122;-74
2023/12/27 11:35:24;;;;;;;8.07;4.88;;;8.30;99.90;;;;;;10353852;28;20030;-74
2023/12/27 11:40:34;;;;;;;7.68;4.47;;;8.30;99.90;;;;;;10353307;28;20034;-74
2023/12/27 11:45:57;;;;;;;6.85;4.60;;;8.30;99.90;;;;;;10349532;28;20025;-74
2023/12/27 11:51:00;;;;;;;7.13;4.43;;;8.30;99.90;;;;;;10357706;28;20102;-74
2023/12/27 11:56:01;;;;;;;8.75;4.75;;;8.30;99.90;;;;;;10354205;28;20229;-73
2023/12/27 12:01:25;;;;;;;7.30;4.38;;;8.30;99.90;;;;;;10360632;28;20473;-74
2023/12/27 12:06:54;;;;;;;9.40;4.68;;;8.40;99.90;;;;;;10350486;28;20100;-73
2023/12/27 12:11:54;;;;;;;6.28;4.25;;;8.40;99.90;;;;;;10354516;28;20099;-73
2023/12/27 12:16:55;;;;;;;10.10;5.03;;;8.40;99.90;;;;;;10352134;28;20144;-73
2023/12/27 12:21:57;;;;;;;9.15;5.38;;;8.40;99.90;;;;;;10353194;28;20473;-74
2023/12/27 12:26:57;;;;;;;10.05;4.75;;;8.40;99.90;;;;;;10349583;28;20096;-73
2023/12/27 12:31:59;;;;;;;9.68;5.13;;;8.40;99.90;;;;;;10351097;28;20038;-73
2023/12/27 12:37:00;;;;;;;11.43;5.03;;;8.40;99.90;;;;;;10344820;28;20388;-73
2023/12/27 12:42:00;;;;;;;9.82;5.07;;;8.40;99.90;;;;;;10357854;28;20033;-75
2023/12/27 12:47:02;;;;;;;9.73;4.97;;;8.40;99.90;;;;;;10369841;28;20025;-74
2023/12/27 12:52:04;;;;;;;8.75;4.97;;;8.40;99.90;;;;;;10361999;28;20059;-75
2023/12/27 12:57:06;;;;;;;8.48;5.82;;;8.40;99.90;;;;;;10354666;28;20018;-74
2023/12/27 13:02:07;;;;;;;10.57;5.93;;;8.50;99.90;;;;;;10340728;28;20064;-75
2023/12/27 13:07:07;;;;;;;8.70;5.63;;;8.50;99.90;;;;;;10353129;28;20121;-74
2023/12/27 13:12:08;;;;;;;7.53;4.95;;;8.60;99.90;;;;;;10361209;28;20030;-74
2023/12/27 13:17:08;;;;;;;9.18;5.57;;;8.60;99.90;;;;;;10355739;28;20810;-74
2023/12/27 13:22:10;;;;;;;9.25;5.65;;;8.60;99.90;;;;;;10370600;28;20097;-74
2023/12/27 13:27:10;;;;;;;7.40;4.75;;;8.60;99.90;;;;;;10354674;28;20465;-74
2023/12/27 13:32:12;;;;;;;8.98;5.50;;;8.60;99.90;;;;;;10357536;28;20104;-75
2023/12/27 13:37:13;;;;;;;7.55;4.88;;;8.60;99.90;;;;;;10358774;28;20038;-74
2023/12/27 13:42:13;;;;;;;8.95;5.05;;;8.60;99.90;;;;;;10355393;28;20492;-74
2023/12/27 13:47:16;;;;;;;7.68;4.97;;;8.60;99.90;;;;;;10348943;28;20037;-74
2023/12/27 13:52:16;;;;;;;10.63;5.20;;;8.60;99.90;;;;;;10354800;28;20069;-74
2023/12/27 13:57:17;;;;;;;6.47;4.18;;;8.60;99.90;;;;;;10353764;28;20117;-74
2023/12/27 14:02:18;;;;;;;6.47;4.18;;;8.60;99.90;;;;;;10352490;28;20034;-74
2023/12/27 14:07:19;;;;;;;7.45;4.10;;;8.60;99.90;;;;;;10350926;28;20030;-73
2023/12/27 14:12:20;;;;;;;6.18;3.63;;;8.90;99.90;;;;;;10358309;28;20317;-74
2023/12/27 14:17:20;;;;;;;6.13;3.50;;;8.60;99.90;;;;;;10352118;28;20033;-74
2023/12/27 14:22:21;;;;;;;10.07;4.20;;;8.60;99.90;;;;;;10357532;28;20029;-75
2023/12/27 14:27:21;;;;;;;6.03;3.85;;;8.70;99.90;;;;;;10347466;28;20034;-75
2023/12/27 14:32:22;;;;;;;6.45;3.92;;;8.70;99.90;;;;;;10414879;22;20096;-66
2023/12/27 14:37:22;;;;;;;5.85;3.17;;;8.70;99.90;;;;;;10386301;28;20549;-67
2023/12/27 14:42:23;;;;;;;5.68;4.25;;;8.70;99.90;;;;;;10362810;28;20470;-67
2023/12/27 14:47:24;;;;;;;7.05;3.63;;;8.70;99.90;;;;;;10360925;28;20494;-67
2023/12/27 14:52:24;;;;;;;7.20;3.15;;;8.70;99.90;;;;;;10358445;28;20040;-67
2023/12/27 14:57:25;;;;;;;8.32;3.10;;;8.70;99.90;;;;;;10367442;28;20041;-67
2023/12/27 15:02:26;;;;;;;4.32;2.60;;;8.70;99.90;;;;;;10364216;28;20227;-73
2023/12/27 15:07:26;;;;;;;8.13;2.63;;;8.80;99.90;;;;;;10354480;28;20108;-67
2023/12/27 15:12:27;;;;;;;5.35;2.97;;;8.80;99.90;;;;;;10359186;28;20030;-67
2023/12/27 15:17:31;;;;;;;4.82;3.38;;;8.80;99.90;;;;;;10360720;28;20041;-67
2023/12/27 15:22:31;;;;;;;5.80;2.53;;;8.80;99.90;;;;;;10357546;28;20026;-71
2023/12/27 15:27:38;;;;;;;4.47;2.38;;;9.00;99.90;;;;;;10361592;28;20487;-68
2023/12/27 15:32:38;;;;;;;5.55;2.78;;;9.10;99.90;;;;;;10356791;28;20659;-67
2023/12/27 15:37:39;;;;;;;4.07;2.42;;;9.10;99.90;;;;;;10353211;28;20036;-67
2023/12/27 15:42:40;;;;;;;4.55;2.60;;;9.10;99.90;;;;;;10359724;28;20060;-68
2023/12/27 15:47:44;;;;;;;4.00;2.58;;;9.00;99.90;;;;;;10342996;28;20025;-68
2023/12/27 15:52:44;;;;;;;4.43;2.40;;;9.00;99.90;;;;;;10362866;28;20227;-68
2023/12/27 15:57:45;;;;;;;3.78;2.42;;;9.00;99.90;;;;;;10362807;28;20056;-67
2023/12/27 16:02:47;;;;;;;6.47;2.67;;;9.00;99.90;;;;;;10363803;28;20059;-68
2023/12/27 16:07:47;;;;;;;4.43;2.40;;;8.90;99.90;;;;;;10358475;28;20668;-67
2023/12/27 16:12:49;;;;;;;4.82;2.47;;;8.90;99.90;;;;;;10363890;28;20017;-67
2023/12/27 16:17:49;;;;;;;4.03;2.30;;;8.90;99.90;;;;;;10358545;28;20018;-68
2023/12/27 16:22:50;;;;;;;4.82;2.30;;;8.90;99.90;;;;;;10361345;28;20099;-67
2023/12/27 16:27:52;;;;;;;3.45;2.42;;;8.90;99.90;;;;;;10356583;28;20385;-67
2023/12/27 16:32:53;;;;;;;6.57;2.80;;;8.90;99.90;;;;;;10370833;28;20041;-68
2023/12/27 16:37:53;;;;;;;5.05;2.60;;;9.00;99.90;;;;;;10352352;28;20026;-67
2023/12/27 16:42:55;;;;;;;4.05;2.33;;;9.00;99.90;;;;;;10359301;28;20029;-69
2023/12/27 16:48:00;;;;;;;5.43;2.00;;;9.00;99.90;;;;;;10359436;28;20065;-67
2023/12/27 16:53:01;;;;;;;5.10;2.25;;;9.00;99.90;;;;;;10359998;28;20057;-68
2023/12/27 16:58:04;;;;;;;3.40;2.20;;;9.00;99.90;;;;;;10352149;28;20101;-67
2023/12/27 17:03:06;;;;;;;5.80;2.65;;;9.00;99.90;;;;;;10359469;28;20290;-68
2023/12/27 17:08:08;;;;;;;4.88;2.25;;;9.00;99.90;;;;;;10360064;28;20062;-70
2023/12/27 17:13:09;;;;;;;5.32;2.10;;;9.00;99.90;;;;;;10363592;28;20441;-68
2023/12/27 17:18:09;;;;;;;4.25;2.42;;;9.00;99.90;;;;;;10355609;28;20033;-70
2023/12/27 17:23:10;;;;;;;4.70;2.20;;;9.00;99.90;;;;;;10364276;28;20033;-68
2023/12/27 17:28:10;;;;;;;4.70;2.10;;;9.10;99.90;;;;;;10367126;28;20022;-69
2023/12/27 17:33:11;;;;;;;3.55;2.30;;;9.10;99.90;;;;;;10359636;28;20029;-70
2023/12/27 17:38:11;;;;;;;4.43;2.05;;;9.10;99.90;;;;;;10361504;28;20521;-69
2023/12/27 17:43:12;;;;;;;5.38;2.35;;;9.10;99.90;;;;;;10360184;28;20502;-67
2023/12/27 17:48:13;;;;;;;4.38;2.20;;;9.10;99.90;;;;;;10364136;28;20295;-66
2023/12/27 17:53:14;;;;;;;6.18;2.55;;;9.10;99.90;;;;;;10369337;28;20505;-67
2023/12/27 17:58:15;;;;;;;5.63;2.20;;;9.20;99.90;;;;;;10363831;28;20030;-67
2023/12/27 18:03:15;;;;;;;6.75;2.03;;;9.20;99.90;;;;;;10365938;28;20197;-67
2023/12/27 18:08:16;;;;;;;4.75;2.20;;;9.20;99.90;;;;;;10351355;28;20107;-67
2023/12/27 18:13:16;;;;;;;7.78;2.17;;;9.10;99.90;;;;;;10368983;28;20037;-67
2023/12/27 18:18:17;;;;;;;3.95;2.10;;;9.10;99.90;;;;;;10352306;28;20044;-67
2023/12/27 18:23:18;;;;;;;5.15;2.20;;;9.10;99.90;;;;;;10367585;28;20049;-68
2023/12/27 18:28:19;;;;;;;3.42;2.08;;;9.10;99.90;;;;;;10367740;28;20585;-67
2023/12/27 18:33:20;;;;;;;6.60;1.98;;;9.10;99.90;;;;;;10366297;28;20124;-68
2023/12/27 18:38:20;;;;;;;4.45;1.75;;;9.10;99.90;;;;;;10361138;28;20449;-68
2023/12/27 18:43:22;;;;;;;4.22;2.10;;;9.10;99.90;;;;;;10371484;28;20117;-68
2023/12/27 18:48:23;;;;;;;5.65;2.03;;;9.10;99.90;;;;;;10367907;28;20030;-67
2023/12/27 18:53:23;;;;;;;4.45;1.70;;;9.00;99.90;;;;;;10345085;28;20072;-67
2023/12/27 18:58:24;;;;;;;3.55;1.70;;;9.00;99.90;;;;;;10362320;28;20045;-67
2023/12/27 19:03:24;;;;;;;2.92;1.48;;;9.00;99.90;;;;;;10366773;28;20128;-68
2023/12/27 19:08:25;;;;;;;3.10;1.90;;;9.00;99.90;;;;;;10367302;28;20036;-68
2023/12/27 19:13:26;;;;;;;3.35;1.92;;;9.00;99.90;;;;;;10368067;28;20041;-67
2023/12/27 19:18:26;;;;;;;3.72;2.10;;;9.00;99.90;;;;;;10369400;28;20105;-67
2023/12/27 19:23:29;;;;;;;6.35;1.48;;;9.00;99.90;;;;;;10369199;28;20033;-67
2023/12/27 19:28:32;;;;;;;5.18;1.88;;;9.00;99.90;;;;;;10373403;28;20038;-67
2023/12/27 19:33:33;;;;;;;3.28;1.50;;;9.00;99.90;;;;;;10372230;28;20041;-67
2023/12/27 19:38:35;;;;;;;4.93;1.83;;;9.00;99.90;;;;;;10358184;28;20037;-67
2023/12/27 19:43:35;;;;;;;2.83;1.45;;;9.00;99.90;;;;;;10360797;28;20580;-67
2023/12/27 19:48:39;;;;;;;3.35;1.55;;;9.00;99.90;;;;;;10371622;28;20022;-66
2023/12/27 19:53:40;;;;;;;3.10;1.70;;;9.00;99.90;;;;;;10354293;28;20032;-67
2023/12/27 19:58:41;;;;;;;4.35;1.55;;;9.00;99.90;;;;;;10340034;28;20033;-66
2023/12/27 20:03:43;;;;;;;4.28;1.73;;;9.10;99.90;;;;;;10335562;28;20133;-67
2023/12/27 20:08:43;;;;;;;3.42;1.70;;;9.10;99.90;;;;;;10349005;28;20037;-68
2023/12/27 20:13:44;;;;;;;3.92;1.70;;;9.10;99.90;;;;;;10355437;28;20141;-68
2023/12/27 20:18:45;;;;;;;5.28;1.98;;;9.10;99.90;;;;;;10342519;28;20480;-67
2023/12/27 20:23:45;;;;;;;4.70;1.73;;;9.10;99.90;;;;;;10359943;28;20061;-67
2023/12/27 20:28:46;;;;;;;3.33;1.73;;;9.10;99.90;;;;;;10362905;28;20253;-67
2023/12/27 20:33:46;;;;;;;3.45;1.65;;;9.10;99.90;;;;;;10356932;28;20029;-68
2023/12/27 20:38:47;;;;;;;2.83;1.70;;;9.10;99.90;;;;;;10335135;28;20517;-67
2023/12/27 20:43:48;;;;;;;5.30;1.73;;;9.10;99.90;;;;;;10356079;28;20029;-65
2023/12/27 20:48:49;;;;;;;4.00;1.60;;;9.10;99.90;;;;;;10362703;28;20023;-65
2023/12/27 20:53:52;;;;;;;1.95;1.38;;;9.10;99.90;;;;;;10358910;28;20022;-66
2023/12/27 20:58:52;;;;;;;4.60;1.45;;;9.10;99.90;;;;;;10349043;28;20494;-64
2023/12/27 21:03:53;;;;;;;2.78;1.35;;;9.10;99.90;;;;;;10355190;28;20137;-66
2023/12/27 21:08:53;;;;;;;6.10;1.60;;;9.10;99.90;;;;;;10334968;28;20060;-66
2023/12/27 21:13:54;;;;;;;4.70;1.60;;;9.10;99.90;;;;;;10339584;28;21234;-65
2023/12/27 21:18:55;;;;;;;3.15;1.52;;;9.10;99.90;;;;;;10358308;28;20034;-66
2023/12/27 21:23:56;;;;;;;3.00;1.58;;;9.10;99.90;;;;;;10361639;28;20032;-66
2023/12/27 21:28:57;;;;;;;3.83;1.70;;;9.10;99.90;;;;;;10356475;28;20066;-66
2023/12/27 21:33:58;;;;;;;3.90;2.17;;;9.10;99.90;;;;;;10364296;28;20583;-66
2023/12/27 21:38:58;;;;;;;3.95;1.77;;;9.10;99.90;;;;;;10363619;28;20282;-65
2023/12/27 21:44:00;;;;;;;3.38;1.83;;;9.10;99.90;;;;;;10364326;28;20076;-65
2023/12/27 21:49:00;;;;;;;2.92;1.33;;;9.10;99.90;;;;;;10361322;28;20045;-65
2023/12/27 21:54:01;;;;;;;5.38;1.73;;;8.80;99.90;;;;;;10369158;28;20502;-66
2023/12/27 21:59:02;;;;;;;2.15;1.50;;;9.10;99.90;;;;;;10365894;28;20388;-65
2023/12/27 22:04:04;;;;;;;4.97;1.48;;;9.20;99.90;;;;;;10365899;28;20502;-66
2023/12/27 22:09:05;;;;;;;5.63;2.25;;;9.20;99.90;;;;;;10363611;28;20034;-65
2023/12/27 22:14:09;;;;;;;2.75;1.73;;;9.20;99.90;;;;;;10361819;28;20014;-66
2023/12/27 22:19:09;;;;;;;3.72;2.05;;;9.20;99.90;;;;;;10363774;28;20422;-66
2023/12/27 22:24:10;;;;;;;3.53;1.92;;;9.20;99.90;;;;;;10359391;28;20072;-66
2023/12/27 22:29:10;;;;;;;3.78;1.65;;;9.20;99.90;;;;;;10369084;28;20038;-64
2023/12/27 22:34:11;;;;;;;2.63;1.60;;;9.20;99.90;;;;;;10363239;28;20029;-65
2023/12/27 22:39:11;;;;;;;2.10;1.55;;;9.20;99.90;;;;;;10363016;28;20026;-65
2023/12/27 22:44:12;;;;;;;4.72;1.80;;;9.20;99.90;;;;;;10360843;28;20517;-64
2023/12/27 22:49:13;;;;;;;4.55;1.77;;;9.20;99.90;;;;;;10369968;28;20066;-65
2023/12/27 22:54:14;;;;;;;3.03;1.70;;;9.20;99.90;;;;;;10365763;28;20040;-65
2023/12/27 22:59:14;;;;;;;3.28;1.65;;;9.30;99.90;;;;;;10366328;28;20038;-65
2023/12/27 23:04:15;;;;;;;3.15;1.85;;;9.20;99.90;;;;;;10363226;28;20137;-64
2023/12/27 23:09:16;;;;;;;3.00;1.90;;;9.30;99.90;;;;;;10366379;28;20030;-66
2023/12/27 23:14:17;;;;;;;3.35;1.83;;;9.30;99.90;;;;;;10364702;28;20029;-64
2023/12/27 23:19:17;;;;;;;2.80;1.80;;;9.30;99.90;;;;;;10363117;28;20109;-65
2023/12/27 23:24:18;;;;;;;3.72;1.80;;;9.30;99.90;;;;;;10361894;28;20034;-65
2023/12/27 23:29:19;;;;;;;3.22;1.70;;;9.30;99.90;;;;;;10369748;28;20025;-66
2023/12/27 23:34:19;;;;;;;4.07;1.80;;;9.30;99.90;;;;;;10365720;28;20022;-66
2023/12/27 23:39:20;;;;;;;3.10;1.70;;;9.30;99.90;;;;;;10369227;28;20044;-65
2023/12/27 23:44:20;;;;;;;1.90;1.52;;;9.30;99.90;;;;;;10365812;28;20080;-65
2023/12/27 23:49:21;;;;;;;4.95;2.40;;;9.40;99.90;;;;;;10364487;28;20021;-65
2023/12/27 23:54:21;;;;;;;3.00;1.88;;;9.40;99.90;;;;;;10363023;28;20076;-65
2023/12/27 23:59:22;;;;;;;3.22;1.80;;;9.40;99.90;;;;;;10362515;28;20026;-67
